Husuiyu0018 — 0018 — position and weather

sailwx.info

Track history (hours):
 
Tides and Currents Weather Stations Pressure Air Temp Water Temp Dewpoint Dewpoint Depression Visibility Wind Speed Wind Dir Waves Ship Positions

Husuiyu0018

Last reported at 2014-Sep-17 16:23 UTC. Time now 2014-Sep-17 17:38 UTC.
Position N 31°56' E 120°11'.

Length 30 m.

Type: Fishing. MMSI: 412212538.

Date/timePositionNaut miles runAvg speedWind from/ knotsBaromVisibWave heightAir tempDewpointWater temp
2014-Sep-17 16:23N 31°56' E 120°11'3 3.1
2014-Sep-17 15:32N 31°57' E 120°14'4 3.7
2014-Sep-17 14:33N 31°58' E 120°18'4 3.9
2014-Sep-17 13:33N 31°60' E 120°22'4 4.0
2014-Sep-17 12:33N 32°02' E 120°26'4 4.0
2014-Sep-17 11:33N 32°02' E 120°31'4 3.7
2014-Sep-17 10:33N 32°01' E 120°35'4 3.8
2014-Sep-17 09:22N 32°00' E 120°40'3 4.2
2014-Sep-17 08:33N 32°01' E 120°44'2 2.2
2014-Sep-17 07:32N 32°01' E 120°47'  
2014-Sep-11 16:26N 31°60' E 120°37'  
Track history (hours):
 
Tides and Currents Weather Stations Pressure Air Temp Water Temp Dewpoint Dewpoint Depression Visibility Wind Speed Wind Dir Waves Ship Positions

Husuiyu0018

Last reported at 2014-Sep-17 16:23 UTC. Time now 2014-Sep-17 17:38 UTC.
Position N 31°56' E 120°11'.

Length 30 m.

Type: Fishing. MMSI: 412212538.

Date/timePositionNaut miles runAvg speedWind from/ knotsBaromVisibWave heightAir tempDewpointWater temp
2014-Sep-17 16:23N 31°56' E 120°11'3 3.1
2014-Sep-17 15:32N 31°57' E 120°14'4 3.7
2014-Sep-17 14:33N 31°58' E 120°18'4 3.9
2014-Sep-17 13:33N 31°60' E 120°22'4 4.0
2014-Sep-17 12:33N 32°02' E 120°26'4 4.0
2014-Sep-17 11:33N 32°02' E 120°31'4 3.7
2014-Sep-17 10:33N 32°01' E 120°35'4 3.8
2014-Sep-17 09:22N 32°00' E 120°40'3 4.2
2014-Sep-17 08:33N 32°01' E 120°44'2 2.2
2014-Sep-17 07:32N 32°01' E 120°47'  
2014-Sep-11 16:26N 31°60' E 120°37'  

Dump ship's entire track history